sensor_id;sensor_type;location;lat;lon;timestamp;P1;durP1;ratioP1;P2;durP2;ratioP2
61806;SDS011;47726;52.766;6.606;2023-05-10T00:02:06;11.23;;;10.07;;
61806;SDS011;47726;52.766;6.606;2023-05-10T00:04:31;11.05;;;9.95;;
61806;SDS011;47726;52.766;6.606;2023-05-10T00:06:57;11.20;;;9.88;;
61806;SDS011;47726;52.766;6.606;2023-05-10T00:09:23;10.85;;;9.73;;
61806;SDS011;47726;52.766;6.606;2023-05-10T00:11:48;10.70;;;9.60;;
61806;SDS011;47726;52.766;6.606;2023-05-10T00:14:14;11.70;;;10.45;;
61806;SDS011;47726;52.766;6.606;2023-05-10T00:16:39;11.98;;;10.43;;
61806;SDS011;47726;52.766;6.606;2023-05-10T00:19:05;13.20;;;10.85;;
61806;SDS011;47726;52.766;6.606;2023-05-10T00:21:31;10.60;;;9.52;;
61806;SDS011;47726;52.766;6.606;2023-05-10T00:23:58;11.50;;;10.23;;
61806;SDS011;47726;52.766;6.606;2023-05-10T00:26:24;13.80;;;11.73;;
61806;SDS011;47726;52.766;6.606;2023-05-10T00:28:50;12.40;;;10.52;;
61806;SDS011;47726;52.766;6.606;2023-05-10T00:31:15;12.43;;;11.00;;
61806;SDS011;47726;52.766;6.606;2023-05-10T00:33:41;12.38;;;11.00;;
61806;SDS011;47726;52.766;6.606;2023-05-10T00:36:06;12.38;;;11.07;;
61806;SDS011;47726;52.766;6.606;2023-05-10T00:38:32;12.75;;;11.40;;
61806;SDS011;47726;52.766;6.606;2023-05-10T00:40:58;13.15;;;11.27;;
61806;SDS011;47726;52.766;6.606;2023-05-10T00:43:24;14.05;;;12.13;;
61806;SDS011;47726;52.766;6.606;2023-05-10T00:45:49;12.98;;;11.55;;
61806;SDS011;47726;52.766;6.606;2023-05-10T00:48:15;12.50;;;11.20;;
61806;SDS011;47726;52.766;6.606;2023-05-10T00:50:41;12.20;;;10.48;;
61806;SDS011;47726;52.766;6.606;2023-05-10T00:53:07;13.10;;;11.02;;
61806;SDS011;47726;52.766;6.606;2023-05-10T00:55:33;12.40;;;11.10;;
61806;SDS011;47726;52.766;6.606;2023-05-10T00:57:59;11.85;;;10.35;;
61806;SDS011;47726;52.766;6.606;2023-05-10T01:00:25;12.15;;;10.80;;
61806;SDS011;47726;52.766;6.606;2023-05-10T01:02:51;12.50;;;11.18;;
61806;SDS011;47726;52.766;6.606;2023-05-10T01:05:18;11.45;;;9.57;;
61806;SDS011;47726;52.766;6.606;2023-05-10T01:07:44;12.73;;;10.88;;
61806;SDS011;47726;52.766;6.606;2023-05-10T01:10:09;12.27;;;10.43;;
61806;SDS011;47726;52.766;6.606;2023-05-10T01:12:37;11.77;;;10.57;;
61806;SDS011;47726;52.766;6.606;2023-05-10T01:15:05;12.48;;;10.10;;
61806;SDS011;47726;52.766;6.606;2023-05-10T01:17:33;12.60;;;9.73;;
61806;SDS011;47726;52.766;6.606;2023-05-10T01:20:00;11.90;;;9.30;;
61806;SDS011;47726;52.766;6.606;2023-05-10T01:22:42;12.27;;;9.32;;
61806;SDS011;47726;52.766;6.606;2023-05-10T01:34:39;9.55;;;7.82;;
61806;SDS011;47726;52.766;6.606;2023-05-10T01:37:31;10.63;;;7.97;;
61806;SDS011;47726;52.766;6.606;2023-05-10T01:40:08;10.18;;;7.80;;
61806;SDS011;47726;52.766;6.606;2023-05-10T01:42:59;10.33;;;8.23;;
61806;SDS011;47726;52.766;6.606;2023-05-10T01:48:04;11.23;;;8.30;;
61806;SDS011;47726;52.766;6.606;2023-05-10T01:50:32;10.10;;;8.50;;
61806;SDS011;47726;52.766;6.606;2023-05-10T01:52:59;9.68;;;7.72;;
61806;SDS011;47726;52.766;6.606;2023-05-10T01:55:28;9.23;;;8.00;;
61806;SDS011;47726;52.766;6.606;2023-05-10T01:58:02;9.40;;;8.00;;
61806;SDS011;47726;52.766;6.606;2023-05-10T02:00:30;9.75;;;7.53;;
61806;SDS011;47726;52.766;6.606;2023-05-10T02:02:58;10.30;;;8.07;;
61806;SDS011;47726;52.766;6.606;2023-05-10T02:05:26;9.38;;;8.13;;
61806;SDS011;47726;52.766;6.606;2023-05-10T02:07:55;8.85;;;7.55;;
61806;SDS011;47726;52.766;6.606;2023-05-10T02:10:23;10.02;;;7.68;;
61806;SDS011;47726;52.766;6.606;2023-05-10T02:12:48;9.90;;;8.15;;
61806;SDS011;47726;52.766;6.606;2023-05-10T02:15:17;10.07;;;7.93;;
61806;SDS011;47726;52.766;6.606;2023-05-10T02:17:46;9.82;;;7.93;;
61806;SDS011;47726;52.766;6.606;2023-05-10T02:20:12;9.75;;;7.63;;
61806;SDS011;47726;52.766;6.606;2023-05-10T02:22:38;9.13;;;7.70;;
61806;SDS011;47726;52.766;6.606;2023-05-10T02:25:06;9.98;;;7.53;;
61806;SDS011;47726;52.766;6.606;2023-05-10T02:27:34;9.25;;;7.75;;
61806;SDS011;47726;52.766;6.606;2023-05-10T02:30:01;9.38;;;7.78;;
61806;SDS011;47726;52.766;6.606;2023-05-10T02:32:27;10.40;;;7.90;;
61806;SDS011;47726;52.766;6.606;2023-05-10T02:34:55;9.35;;;7.90;;
61806;SDS011;47726;52.766;6.606;2023-05-10T02:37:22;9.38;;;7.53;;
61806;SDS011;47726;52.766;6.606;2023-05-10T02:39:49;9.52;;;7.75;;
61806;SDS011;47726;52.766;6.606;2023-05-10T02:42:17;12.30;;;8.18;;
61806;SDS011;47726;52.766;6.606;2023-05-10T02:44:48;9.52;;;7.55;;
61806;SDS011;47726;52.766;6.606;2023-05-10T02:47:15;9.27;;;7.53;;
61806;SDS011;47726;52.766;6.606;2023-05-10T02:49:42;10.60;;;7.63;;
61806;SDS011;47726;52.766;6.606;2023-05-10T02:52:08;10.05;;;8.00;;
61806;SDS011;47726;52.766;6.606;2023-05-10T02:54:39;10.68;;;7.82;;
61806;SDS011;47726;52.766;6.606;2023-05-10T02:57:09;9.20;;;7.50;;
61806;SDS011;47726;52.766;6.606;2023-05-10T02:59:39;10.50;;;8.25;;
61806;SDS011;47726;52.766;6.606;2023-05-10T03:02:07;8.55;;;7.20;;
61806;SDS011;47726;52.766;6.606;2023-05-10T03:04:34;9.05;;;7.90;;
61806;SDS011;47726;52.766;6.606;2023-05-10T03:07:00;8.68;;;7.28;;
61806;SDS011;47726;52.766;6.606;2023-05-10T03:09:26;11.30;;;8.35;;
61806;SDS011;47726;52.766;6.606;2023-05-10T03:11:56;11.77;;;8.23;;
61806;SDS011;47726;52.766;6.606;2023-05-10T03:17:10;10.10;;;7.57;;
61806;SDS011;47726;52.766;6.606;2023-05-10T03:19:46;9.27;;;7.88;;
61806;SDS011;47726;52.766;6.606;2023-05-10T03:22:21;9.30;;;8.00;;
61806;SDS011;47726;52.766;6.606;2023-05-10T03:24:55;9.25;;;8.07;;
61806;SDS011;47726;52.766;6.606;2023-05-10T03:27:23;10.18;;;7.40;;
61806;SDS011;47726;52.766;6.606;2023-05-10T03:29:50;9.15;;;7.70;;
61806;SDS011;47726;52.766;6.606;2023-05-10T03:32:17;10.48;;;8.27;;
61806;SDS011;47726;52.766;6.606;2023-05-10T03:34:43;10.82;;;7.85;;
61806;SDS011;47726;52.766;6.606;2023-05-10T03:37:09;9.63;;;8.43;;
61806;SDS011;47726;52.766;6.606;2023-05-10T03:39:34;10.68;;;8.45;;
61806;SDS011;47726;52.766;6.606;2023-05-10T03:42:00;10.45;;;8.60;;
61806;SDS011;47726;52.766;6.606;2023-05-10T03:44:25;10.60;;;8.82;;
61806;SDS011;47726;52.766;6.606;2023-05-10T03:46:51;10.95;;;8.85;;
61806;SDS011;47726;52.766;6.606;2023-05-10T03:49:17;10.10;;;8.55;;
61806;SDS011;47726;52.766;6.606;2023-05-10T03:51:43;11.27;;;9.00;;
61806;SDS011;47726;52.766;6.606;2023-05-10T03:54:08;11.70;;;9.00;;
61806;SDS011;47726;52.766;6.606;2023-05-10T03:56:34;11.40;;;8.90;;
61806;SDS011;47726;52.766;6.606;2023-05-10T03:58:59;11.15;;;9.00;;
61806;SDS011;47726;52.766;6.606;2023-05-10T04:01:25;10.55;;;9.38;;
61806;SDS011;47726;52.766;6.606;2023-05-10T04:03:51;12.50;;;9.77;;
61806;SDS011;47726;52.766;6.606;2023-05-10T04:06:16;10.75;;;9.15;;
61806;SDS011;47726;52.766;6.606;2023-05-10T04:08:42;12.35;;;9.77;;
61806;SDS011;47726;52.766;6.606;2023-05-10T04:11:08;11.77;;;9.20;;
61806;SDS011;47726;52.766;6.606;2023-05-10T04:13:34;13.07;;;9.68;;
61806;SDS011;47726;52.766;6.606;2023-05-10T04:16:00;11.57;;;9.73;;
61806;SDS011;47726;52.766;6.606;2023-05-10T04:18:26;12.05;;;9.43;;
61806;SDS011;47726;52.766;6.606;2023-05-10T04:20:52;11.93;;;9.88;;
61806;SDS011;47726;52.766;6.606;2023-05-10T04:23:18;11.98;;;10.18;;
61806;SDS011;47726;52.766;6.606;2023-05-10T04:25:43;13.07;;;10.68;;
61806;SDS011;47726;52.766;6.606;2023-05-10T04:28:09;11.38;;;9.75;;
61806;SDS011;47726;52.766;6.606;2023-05-10T04:30:34;12.00;;;10.10;;
61806;SDS011;47726;52.766;6.606;2023-05-10T04:33:00;12.95;;;10.52;;
61806;SDS011;47726;52.766;6.606;2023-05-10T04:35:29;15.07;;;10.82;;
61806;SDS011;47726;52.766;6.606;2023-05-10T04:37:55;12.48;;;10.30;;
61806;SDS011;47726;52.766;6.606;2023-05-10T04:40:20;11.73;;;9.95;;
61806;SDS011;47726;52.766;6.606;2023-05-10T04:42:46;13.27;;;9.68;;
61806;SDS011;47726;52.766;6.606;2023-05-10T04:45:12;13.38;;;10.32;;
61806;SDS011;47726;52.766;6.606;2023-05-10T04:47:39;15.13;;;10.55;;
61806;SDS011;47726;52.766;6.606;2023-05-10T04:50:05;13.40;;;10.40;;
61806;SDS011;47726;52.766;6.606;2023-05-10T04:52:31;13.23;;;10.63;;
61806;SDS011;47726;52.766;6.606;2023-05-10T04:54:57;12.20;;;9.98;;
61806;SDS011;47726;52.766;6.606;2023-05-10T04:57:22;14.15;;;11.20;;
61806;SDS011;47726;52.766;6.606;2023-05-10T04:59:48;13.18;;;10.23;;
61806;SDS011;47726;52.766;6.606;2023-05-10T05:02:13;12.40;;;10.32;;
61806;SDS011;47726;52.766;6.606;2023-05-10T05:04:39;12.70;;;9.50;;
61806;SDS011;47726;52.766;6.606;2023-05-10T05:07:04;13.93;;;10.20;;
61806;SDS011;47726;52.766;6.606;2023-05-10T05:09:30;12.25;;;9.50;;
61806;SDS011;47726;52.766;6.606;2023-05-10T05:11:57;11.38;;;8.77;;
61806;SDS011;47726;52.766;6.606;2023-05-10T05:14:23;12.55;;;8.45;;
61806;SDS011;47726;52.766;6.606;2023-05-10T05:16:50;13.13;;;9.07;;
61806;SDS011;47726;52.766;6.606;2023-05-10T05:19:19;10.88;;;8.57;;
61806;SDS011;47726;52.766;6.606;2023-05-10T05:21:44;12.35;;;8.57;;
61806;SDS011;47726;52.766;6.606;2023-05-10T05:24:10;11.25;;;8.32;;
61806;SDS011;47726;52.766;6.606;2023-05-10T05:26:37;11.02;;;8.75;;
61806;SDS011;47726;52.766;6.606;2023-05-10T05:29:03;13.70;;;8.63;;
61806;SDS011;47726;52.766;6.606;2023-05-10T05:31:29;12.32;;;8.52;;
61806;SDS011;47726;52.766;6.606;2023-05-10T05:33:54;13.15;;;8.20;;
61806;SDS011;47726;52.766;6.606;2023-05-10T05:36:20;12.27;;;8.20;;
61806;SDS011;47726;52.766;6.606;2023-05-10T05:38:46;12.88;;;8.77;;
61806;SDS011;47726;52.766;6.606;2023-05-10T05:41:12;12.38;;;8.60;;
61806;SDS011;47726;52.766;6.606;2023-05-10T05:43:38;13.43;;;8.90;;
61806;SDS011;47726;52.766;6.606;2023-05-10T05:46:04;13.55;;;9.07;;
61806;SDS011;47726;52.766;6.606;2023-05-10T05:48:30;11.23;;;7.57;;
61806;SDS011;47726;52.766;6.606;2023-05-10T05:50:56;11.70;;;8.45;;
61806;SDS011;47726;52.766;6.606;2023-05-10T05:53:22;11.45;;;8.07;;
61806;SDS011;47726;52.766;6.606;2023-05-10T05:55:54;11.93;;;8.88;;
61806;SDS011;47726;52.766;6.606;2023-05-10T05:58:22;12.02;;;8.40;;
61806;SDS011;47726;52.766;6.606;2023-05-10T06:00:47;13.02;;;8.60;;
61806;SDS011;47726;52.766;6.606;2023-05-10T06:03:13;13.20;;;8.82;;
61806;SDS011;47726;52.766;6.606;2023-05-10T06:05:39;12.05;;;8.23;;
61806;SDS011;47726;52.766;6.606;2023-05-10T06:08:04;12.43;;;8.20;;
61806;SDS011;47726;52.766;6.606;2023-05-10T06:10:30;13.40;;;9.15;;
61806;SDS011;47726;52.766;6.606;2023-05-10T06:12:56;14.13;;;9.15;;
61806;SDS011;47726;52.766;6.606;2023-05-10T06:15:21;13.05;;;9.00;;
61806;SDS011;47726;52.766;6.606;2023-05-10T06:17:47;12.85;;;8.57;;
61806;SDS011;47726;52.766;6.606;2023-05-10T06:20:14;13.32;;;8.60;;
61806;SDS011;47726;52.766;6.606;2023-05-10T06:22:40;14.13;;;8.98;;
61806;SDS011;47726;52.766;6.606;2023-05-10T06:25:06;14.68;;;9.25;;
61806;SDS011;47726;52.766;6.606;2023-05-10T06:27:32;15.32;;;9.00;;
61806;SDS011;47726;52.766;6.606;2023-05-10T06:29:58;13.95;;;9.43;;
61806;SDS011;47726;52.766;6.606;2023-05-10T06:32:23;12.38;;;8.65;;
61806;SDS011;47726;52.766;6.606;2023-05-10T06:34:49;14.35;;;9.32;;
61806;SDS011;47726;52.766;6.606;2023-05-10T06:37:15;14.02;;;8.10;;
61806;SDS011;47726;52.766;6.606;2023-05-10T06:39:40;13.02;;;8.07;;
61806;SDS011;47726;52.766;6.606;2023-05-10T06:42:06;13.60;;;8.30;;
61806;SDS011;47726;52.766;6.606;2023-05-10T06:44:32;12.93;;;8.30;;
61806;SDS011;47726;52.766;6.606;2023-05-10T06:46:57;13.15;;;8.55;;
61806;SDS011;47726;52.766;6.606;2023-05-10T06:49:23;12.82;;;8.60;;
61806;SDS011;47726;52.766;6.606;2023-05-10T06:51:48;12.50;;;7.97;;
61806;SDS011;47726;52.766;6.606;2023-05-10T06:54:14;13.65;;;8.00;;
61806;SDS011;47726;52.766;6.606;2023-05-10T06:56:40;10.93;;;7.60;;
61806;SDS011;47726;52.766;6.606;2023-05-10T06:59:05;12.20;;;7.65;;
61806;SDS011;47726;52.766;6.606;2023-05-10T07:01:31;10.98;;;7.30;;
61806;SDS011;47726;52.766;6.606;2023-05-10T07:03:57;14.85;;;8.00;;
61806;SDS011;47726;52.766;6.606;2023-05-10T07:06:22;11.00;;;7.13;;
61806;SDS011;47726;52.766;6.606;2023-05-10T07:08:48;10.50;;;7.05;;
61806;SDS011;47726;52.766;6.606;2023-05-10T07:11:13;12.70;;;7.35;;
61806;SDS011;47726;52.766;6.606;2023-05-10T07:13:39;11.48;;;6.85;;
61806;SDS011;47726;52.766;6.606;2023-05-10T07:16:08;10.38;;;6.90;;
61806;SDS011;47726;52.766;6.606;2023-05-10T07:18:35;10.57;;;6.63;;
61806;SDS011;47726;52.766;6.606;2023-05-10T07:21:00;10.63;;;6.82;;
61806;SDS011;47726;52.766;6.606;2023-05-10T07:23:26;10.27;;;6.95;;
61806;SDS011;47726;52.766;6.606;2023-05-10T07:25:52;10.98;;;6.95;;
61806;SDS011;47726;52.766;6.606;2023-05-10T07:28:17;10.57;;;7.00;;
61806;SDS011;47726;52.766;6.606;2023-05-10T07:30:43;10.38;;;6.63;;
61806;SDS011;47726;52.766;6.606;2023-05-10T07:33:10;10.32;;;6.80;;
61806;SDS011;47726;52.766;6.606;2023-05-10T07:35:38;10.30;;;6.55;;
61806;SDS011;47726;52.766;6.606;2023-05-10T07:38:04;13.60;;;7.70;;
61806;SDS011;47726;52.766;6.606;2023-05-10T07:40:29;10.55;;;7.13;;
61806;SDS011;47726;52.766;6.606;2023-05-10T07:42:56;13.88;;;7.97;;
61806;SDS011;47726;52.766;6.606;2023-05-10T07:45:21;19.60;;;7.88;;
61806;SDS011;47726;52.766;6.606;2023-05-10T07:47:48;12.88;;;7.63;;
61806;SDS011;47726;52.766;6.606;2023-05-10T07:50:13;13.23;;;7.65;;
61806;SDS011;47726;52.766;6.606;2023-05-10T07:52:39;11.80;;;7.10;;
61806;SDS011;47726;52.766;6.606;2023-05-10T07:55:05;12.45;;;7.00;;
61806;SDS011;47726;52.766;6.606;2023-05-10T07:57:32;11.15;;;6.70;;
61806;SDS011;47726;52.766;6.606;2023-05-10T07:59:58;11.55;;;7.03;;
61806;SDS011;47726;52.766;6.606;2023-05-10T08:02:24;10.43;;;6.70;;
61806;SDS011;47726;52.766;6.606;2023-05-10T08:04:50;11.35;;;6.75;;
61806;SDS011;47726;52.766;6.606;2023-05-10T08:07:16;11.63;;;6.28;;
61806;SDS011;47726;52.766;6.606;2023-05-10T08:09:42;10.88;;;6.80;;
61806;SDS011;47726;52.766;6.606;2023-05-10T08:12:07;11.38;;;6.40;;
61806;SDS011;47726;52.766;6.606;2023-05-10T08:14:33;12.15;;;6.70;;
61806;SDS011;47726;52.766;6.606;2023-05-10T08:16:59;9.77;;;6.30;;
61806;SDS011;47726;52.766;6.606;2023-05-10T08:19:25;9.65;;;5.90;;
61806;SDS011;47726;52.766;6.606;2023-05-10T08:21:51;8.98;;;5.93;;
61806;SDS011;47726;52.766;6.606;2023-05-10T08:24:18;8.40;;;5.30;;
61806;SDS011;47726;52.766;6.606;2023-05-10T08:26:44;8.85;;;5.40;;
61806;SDS011;47726;52.766;6.606;2023-05-10T08:29:09;18.83;;;7.20;;
61806;SDS011;47726;52.766;6.606;2023-05-10T08:31:35;11.10;;;5.90;;
61806;SDS011;47726;52.766;6.606;2023-05-10T08:34:00;43.88;;;13.82;;
61806;SDS011;47726;52.766;6.606;2023-05-10T08:36:26;35.42;;;12.02;;
61806;SDS011;47726;52.766;6.606;2023-05-10T08:38:53;11.07;;;6.13;;
61806;SDS011;47726;52.766;6.606;2023-05-10T08:41:20;20.38;;;8.52;;
61806;SDS011;47726;52.766;6.606;2023-05-10T08:43:46;38.03;;;11.57;;
61806;SDS011;47726;52.766;6.606;2023-05-10T08:46:15;14.93;;;6.88;;
61806;SDS011;47726;52.766;6.606;2023-05-10T08:48:43;9.50;;;5.80;;
61806;SDS011;47726;52.766;6.606;2023-05-10T08:51:13;9.82;;;5.38;;
61806;SDS011;47726;52.766;6.606;2023-05-10T08:53:42;7.78;;;5.03;;
61806;SDS011;47726;52.766;6.606;2023-05-10T08:56:08;8.32;;;4.90;;
61806;SDS011;47726;52.766;6.606;2023-05-10T08:58:34;13.05;;;5.53;;
61806;SDS011;47726;52.766;6.606;2023-05-10T09:01:00;11.15;;;5.90;;
61806;SDS011;47726;52.766;6.606;2023-05-10T09:03:26;8.80;;;5.78;;
61806;SDS011;47726;52.766;6.606;2023-05-10T09:05:51;9.13;;;6.22;;
61806;SDS011;47726;52.766;6.606;2023-05-10T09:08:17;10.75;;;6.05;;
61806;SDS011;47726;52.766;6.606;2023-05-10T09:10:43;10.57;;;6.20;;
61806;SDS011;47726;52.766;6.606;2023-05-10T09:13:12;10.52;;;5.93;;
61806;SDS011;47726;52.766;6.606;2023-05-10T09:15:39;14.23;;;6.53;;
61806;SDS011;47726;52.766;6.606;2023-05-10T09:18:04;11.27;;;5.75;;
61806;SDS011;47726;52.766;6.606;2023-05-10T09:20:30;9.07;;;5.57;;
61806;SDS011;47726;52.766;6.606;2023-05-10T09:22:56;9.25;;;5.57;;
61806;SDS011;47726;52.766;6.606;2023-05-10T09:25:22;7.55;;;5.68;;
61806;SDS011;47726;52.766;6.606;2023-05-10T09:27:47;9.90;;;6.57;;
61806;SDS011;47726;52.766;6.606;2023-05-10T09:30:17;11.10;;;6.80;;
61806;SDS011;47726;52.766;6.606;2023-05-10T09:32:53;9.40;;;6.10;;
61806;SDS011;47726;52.766;6.606;2023-05-10T09:35:24;13.43;;;7.22;;
61806;SDS011;47726;52.766;6.606;2023-05-10T09:37:52;14.63;;;8.00;;
61806;SDS011;47726;52.766;6.606;2023-05-10T09:40:20;12.13;;;7.82;;
61806;SDS011;47726;52.766;6.606;2023-05-10T09:42:54;11.07;;;7.10;;
61806;SDS011;47726;52.766;6.606;2023-05-10T09:45:24;10.88;;;7.68;;
61806;SDS011;47726;52.766;6.606;2023-05-10T09:47:53;11.38;;;7.88;;
61806;SDS011;47726;52.766;6.606;2023-05-10T09:50:20;13.40;;;7.72;;
61806;SDS011;47726;52.766;6.606;2023-05-10T09:52:59;22.35;;;9.13;;
61806;SDS011;47726;52.766;6.606;2023-05-10T09:55:43;16.38;;;8.90;;
61806;SDS011;47726;52.766;6.606;2023-05-10T09:58:11;11.63;;;8.30;;
61806;SDS011;47726;52.766;6.606;2023-05-10T10:00:40;11.77;;;7.90;;
61806;SDS011;47726;52.766;6.606;2023-05-10T10:03:17;12.00;;;8.00;;
61806;SDS011;47726;52.766;6.606;2023-05-10T10:05:45;11.35;;;8.90;;
61806;SDS011;47726;52.766;6.606;2023-05-10T10:08:11;11.73;;;8.48;;
61806;SDS011;47726;52.766;6.606;2023-05-10T10:10:38;12.05;;;8.35;;
61806;SDS011;47726;52.766;6.606;2023-05-10T10:13:09;11.80;;;9.23;;
61806;SDS011;47726;52.766;6.606;2023-05-10T10:15:35;11.55;;;8.60;;
61806;SDS011;47726;52.766;6.606;2023-05-10T10:18:00;11.55;;;8.32;;
61806;SDS011;47726;52.766;6.606;2023-05-10T10:20:28;11.55;;;8.27;;
61806;SDS011;47726;52.766;6.606;2023-05-10T10:22:54;12.65;;;8.93;;
61806;SDS011;47726;52.766;6.606;2023-05-10T10:25:20;13.55;;;9.10;;
61806;SDS011;47726;52.766;6.606;2023-05-10T10:36:02;12.45;;;8.85;;
61806;SDS011;47726;52.766;6.606;2023-05-10T10:38:54;11.48;;;8.77;;
61806;SDS011;47726;52.766;6.606;2023-05-10T10:49:24;11.05;;;8.10;;
61806;SDS011;47726;52.766;6.606;2023-05-10T10:54:38;10.82;;;7.25;;
61806;SDS011;47726;52.766;6.606;2023-05-10T10:57:14;11.23;;;7.72;;
61806;SDS011;47726;52.766;6.606;2023-05-10T10:59:43;10.52;;;7.38;;
61806;SDS011;47726;52.766;6.606;2023-05-10T11:02:09;11.90;;;7.13;;
61806;SDS011;47726;52.766;6.606;2023-05-10T11:04:42;10.68;;;6.90;;
61806;SDS011;47726;52.766;6.606;2023-05-10T11:07:18;10.68;;;7.63;;
61806;SDS011;47726;52.766;6.606;2023-05-10T11:09:45;11.75;;;7.75;;
61806;SDS011;47726;52.766;6.606;2023-05-10T11:12:11;11.90;;;7.47;;
61806;SDS011;47726;52.766;6.606;2023-05-10T11:14:37;9.15;;;6.80;;
61806;SDS011;47726;52.766;6.606;2023-05-10T11:17:21;10.70;;;7.13;;
61806;SDS011;47726;52.766;6.606;2023-05-10T11:20:10;9.95;;;7.05;;
61806;SDS011;47726;52.766;6.606;2023-05-10T11:22:53;9.65;;;6.40;;
61806;SDS011;47726;52.766;6.606;2023-05-10T11:25:19;12.15;;;8.05;;
61806;SDS011;47726;52.766;6.606;2023-05-10T11:27:51;11.80;;;8.57;;
61806;SDS011;47726;52.766;6.606;2023-05-10T11:30:17;11.55;;;7.85;;
61806;SDS011;47726;52.766;6.606;2023-05-10T11:32:42;11.82;;;8.23;;
61806;SDS011;47726;52.766;6.606;2023-05-10T11:35:09;10.77;;;8.18;;
61806;SDS011;47726;52.766;6.606;2023-05-10T11:37:36;14.45;;;8.73;;
61806;SDS011;47726;52.766;6.606;2023-05-10T11:40:07;12.35;;;8.45;;
61806;SDS011;47726;52.766;6.606;2023-05-10T11:42:35;10.65;;;7.93;;
61806;SDS011;47726;52.766;6.606;2023-05-10T11:45:05;10.98;;;8.18;;
61806;SDS011;47726;52.766;6.606;2023-05-10T11:47:31;12.70;;;8.18;;
61806;SDS011;47726;52.766;6.606;2023-05-10T11:49:56;13.50;;;8.80;;
61806;SDS011;47726;52.766;6.606;2023-05-10T11:52:22;12.90;;;9.50;;
61806;SDS011;47726;52.766;6.606;2023-05-10T11:54:52;13.75;;;9.30;;
61806;SDS011;47726;52.766;6.606;2023-05-10T11:57:19;11.38;;;8.43;;
61806;SDS011;47726;52.766;6.606;2023-05-10T11:59:46;13.35;;;9.25;;
61806;SDS011;47726;52.766;6.606;2023-05-10T12:02:13;11.50;;;8.65;;
61806;SDS011;47726;52.766;6.606;2023-05-10T12:04:39;13.93;;;9.35;;
61806;SDS011;47726;52.766;6.606;2023-05-10T12:07:05;11.95;;;8.93;;
61806;SDS011;47726;52.766;6.606;2023-05-10T12:09:31;12.88;;;9.02;;
61806;SDS011;47726;52.766;6.606;2023-05-10T12:11:56;13.48;;;9.73;;
61806;SDS011;47726;52.766;6.606;2023-05-10T12:14:22;12.02;;;9.07;;
61806;SDS011;47726;52.766;6.606;2023-05-10T12:16:49;11.23;;;8.55;;
61806;SDS011;47726;52.766;6.606;2023-05-10T12:19:18;13.23;;;9.18;;
61806;SDS011;47726;52.766;6.606;2023-05-10T12:21:45;14.40;;;9.10;;
61806;SDS011;47726;52.766;6.606;2023-05-10T12:24:11;13.48;;;9.77;;
61806;SDS011;47726;52.766;6.606;2023-05-10T12:26:37;13.93;;;10.38;;
61806;SDS011;47726;52.766;6.606;2023-05-10T12:29:16;13.35;;;10.23;;
61806;SDS011;47726;52.766;6.606;2023-05-10T12:34:29;13.02;;;9.85;;
61806;SDS011;47726;52.766;6.606;2023-05-10T12:36:56;11.85;;;9.13;;
61806;SDS011;47726;52.766;6.606;2023-05-10T12:39:22;12.65;;;8.93;;
61806;SDS011;47726;52.766;6.606;2023-05-10T12:41:48;11.65;;;9.27;;
61806;SDS011;47726;52.766;6.606;2023-05-10T12:44:13;13.60;;;9.75;;
61806;SDS011;47726;52.766;6.606;2023-05-10T12:46:39;12.35;;;9.20;;
61806;SDS011;47726;52.766;6.606;2023-05-10T12:49:04;12.52;;;9.20;;
61806;SDS011;47726;52.766;6.606;2023-05-10T12:51:30;13.30;;;10.05;;
61806;SDS011;47726;52.766;6.606;2023-05-10T12:53:56;13.23;;;9.32;;
61806;SDS011;47726;52.766;6.606;2023-05-10T12:56:22;11.65;;;8.38;;
61806;SDS011;47726;52.766;6.606;2023-05-10T12:58:47;11.82;;;8.38;;
61806;SDS011;47726;52.766;6.606;2023-05-10T13:01:13;12.68;;;8.60;;
61806;SDS011;47726;52.766;6.606;2023-05-10T13:03:39;11.82;;;8.52;;
61806;SDS011;47726;52.766;6.606;2023-05-10T13:06:05;12.38;;;8.90;;
61806;SDS011;47726;52.766;6.606;2023-05-10T13:08:31;12.48;;;9.15;;
61806;SDS011;47726;52.766;6.606;2023-05-10T13:10:59;12.85;;;8.88;;
61806;SDS011;47726;52.766;6.606;2023-05-10T13:13:27;11.40;;;7.90;;
61806;SDS011;47726;52.766;6.606;2023-05-10T13:15:53;12.88;;;8.00;;
61806;SDS011;47726;52.766;6.606;2023-05-10T13:18:18;12.05;;;8.07;;
61806;SDS011;47726;52.766;6.606;2023-05-10T13:20:44;13.23;;;8.75;;
61806;SDS011;47726;52.766;6.606;2023-05-10T13:23:10;12.32;;;8.27;;
61806;SDS011;47726;52.766;6.606;2023-05-10T13:25:35;13.10;;;9.43;;
61806;SDS011;47726;52.766;6.606;2023-05-10T13:28:01;13.50;;;9.60;;
61806;SDS011;47726;52.766;6.606;2023-05-10T13:30:27;12.85;;;9.20;;
61806;SDS011;47726;52.766;6.606;2023-05-10T13:32:53;11.82;;;7.20;;
61806;SDS011;47726;52.766;6.606;2023-05-10T13:35:19;10.35;;;7.47;;
61806;SDS011;47726;52.766;6.606;2023-05-10T13:37:45;16.90;;;8.43;;
61806;SDS011;47726;52.766;6.606;2023-05-10T13:40:10;19.40;;;8.52;;
61806;SDS011;47726;52.766;6.606;2023-05-10T13:42:36;32.58;;;9.32;;
61806;SDS011;47726;52.766;6.606;2023-05-10T13:45:02;18.50;;;9.50;;
61806;SDS011;47726;52.766;6.606;2023-05-10T13:47:28;23.15;;;10.43;;
61806;SDS011;47726;52.766;6.606;2023-05-10T13:49:54;15.10;;;8.82;;
61806;SDS011;47726;52.766;6.606;2023-05-10T13:52:19;13.18;;;8.55;;
61806;SDS011;47726;52.766;6.606;2023-05-10T13:54:45;14.90;;;9.18;;
61806;SDS011;47726;52.766;6.606;2023-05-10T13:57:11;11.93;;;8.20;;
61806;SDS011;47726;52.766;6.606;2023-05-10T13:59:38;19.48;;;8.82;;
61806;SDS011;47726;52.766;6.606;2023-05-10T14:02:04;15.52;;;9.45;;
61806;SDS011;47726;52.766;6.606;2023-05-10T14:04:30;12.23;;;8.23;;
61806;SDS011;47726;52.766;6.606;2023-05-10T14:06:56;14.00;;;8.80;;
61806;SDS011;47726;52.766;6.606;2023-05-10T14:09:22;11.35;;;8.18;;
61806;SDS011;47726;52.766;6.606;2023-05-10T14:11:47;12.55;;;8.15;;
61806;SDS011;47726;52.766;6.606;2023-05-10T14:14:13;13.85;;;8.75;;
61806;SDS011;47726;52.766;6.606;2023-05-10T14:16:42;12.80;;;8.95;;
61806;SDS011;47726;52.766;6.606;2023-05-10T14:19:09;14.18;;;9.45;;
61806;SDS011;47726;52.766;6.606;2023-05-10T14:21:35;13.40;;;9.25;;
61806;SDS011;47726;52.766;6.606;2023-05-10T14:24:00;12.93;;;8.50;;
61806;SDS011;47726;52.766;6.606;2023-05-10T14:26:26;10.95;;;7.80;;
61806;SDS011;47726;52.766;6.606;2023-05-10T14:28:52;10.13;;;7.00;;
61806;SDS011;47726;52.766;6.606;2023-05-10T14:31:18;11.02;;;6.82;;
61806;SDS011;47726;52.766;6.606;2023-05-10T14:33:45;10.32;;;6.78;;
61806;SDS011;47726;52.766;6.606;2023-05-10T14:36:12;10.52;;;7.28;;
61806;SDS011;47726;52.766;6.606;2023-05-10T14:38:39;10.98;;;7.75;;
61806;SDS011;47726;52.766;6.606;2023-05-10T14:41:05;11.38;;;7.80;;
61806;SDS011;47726;52.766;6.606;2023-05-10T14:43:30;10.35;;;7.53;;
61806;SDS011;47726;52.766;6.606;2023-05-10T14:45:56;9.48;;;7.30;;
61806;SDS011;47726;52.766;6.606;2023-05-10T14:48:21;10.30;;;7.30;;
61806;SDS011;47726;52.766;6.606;2023-05-10T14:50:47;10.68;;;7.10;;
61806;SDS011;47726;52.766;6.606;2023-05-10T14:53:14;10.82;;;6.70;;
61806;SDS011;47726;52.766;6.606;2023-05-10T14:55:40;10.43;;;7.07;;
61806;SDS011;47726;52.766;6.606;2023-05-10T14:58:05;8.85;;;6.75;;
61806;SDS011;47726;52.766;6.606;2023-05-10T15:00:31;12.73;;;6.90;;
61806;SDS011;47726;52.766;6.606;2023-05-10T15:02:57;12.68;;;7.55;;
61806;SDS011;47726;52.766;6.606;2023-05-10T15:05:23;10.65;;;7.30;;
61806;SDS011;47726;52.766;6.606;2023-05-10T15:07:48;12.85;;;7.72;;
61806;SDS011;47726;52.766;6.606;2023-05-10T15:10:14;10.30;;;7.20;;
61806;SDS011;47726;52.766;6.606;2023-05-10T15:12:40;10.63;;;6.97;;